Aérodrome :
LOGIN :

S'inscrire | Disclaimer

   EN    FR    IT 

 










Légende :    VFR   VFR Marginal   IFR   IFR Intensif   IFR Très Intensif
Visi : 
Plafond : 
>= 8 km
>= 3000ft
5 à 8 km
1000 à 3000 ft
1500m à 5 km
500 à 1000 ft
800 à 1500m
200 à 500 ft
< 800m
< 200 ft
Symboles :   Orages  Brouillard  Fortes neiges  Fortes précipitations  Vent > 20 kt
SIGMETs :   Divers  Orages  Givrage  Turbulence  Onde Orograph.  Cendres Volcan.







- Altitude de l'aérodrome : 604 ft
- Code IATA : LCJ


EPLL - Lodz

DERNIER METAR :
  • 232030Z 04011KT 010V070 4800 RA BKN005 10/10 Q1001

METARs EXPIRÉS :
  • 232000Z 06013KT 3500 RA BKN005 OVC047 10/10 Q1001 RERA
  • 231930Z 04011KT 3100 +RA OVC006 10/10 Q1002
  • 231900Z 07013KT 6000 -RA BKN011 10/10 Q1003
  • 231830Z 07011KT 6000 -RA BKN034 10/09 Q1004
  • 231800Z 07009KT 9999 -RA BKN046 11/09 Q1005 RERA

TAF TAF EPLL
Valide du 23 à 18h jusqu'au 24 à 18h UTC


231730Z 2318/2418 09007KT 9999 -RA OVC030
BECMG 2318/2321 15010KT BKN014
TEMPO 2318/2324 3000 RA BR BKN005
PROB40
TEMPO 2318/2324 1500 +SHRA BKN003 BKN010CB
BECMG 2322/2324 30017KT
TEMPO 2400/2418 30022G35KT SHRA BKN007 BKN014CB
PROB40
TEMPO 2400/2404 31028G45KT
BECMG 2406/2408 SCT030
Pas de NOTAMs connus pour ce terrain.
1 SIGMET publié pour la FIR Warszawa (EPWW) :
 
Turbulence forte
EPWW SIGMET 2 VALID 231915/232315 EPWA
EPWW WARSAW FIR SEV TURB FCST SE OF LINE N5240 E01430 - N5310 E01830 - N5420 E02030 FL200/400 MOV E NC=



MET'MAP, la Météo Aéronautique d'un coup d'oeil ! - Copyright ORBIFLY Décembre 2007 - Disclaimer

ORBIFLY MET'MAP TEAM :

Programmation & Développement : Alexandra Zaïnal
Conception & Développement : Baudouin d'Aumeries
Co-Programmation & Développement : Marc-Olivier Méhu
Soutien technique & logistique : Manuel Goepfert

Contact : metmap@orbifly.com




SOURCES & CREDITS :

   NOAA